sensor_id;sensor_type;location;lat;lon;timestamp;pressure;altitude;pressure_sealevel;temperature;humidity
42001;BME280;27689;48.390;10.856;2024-03-08T00:01:27;96053.97;;;1.66;100.00
42001;BME280;27689;48.390;10.856;2024-03-08T00:04:11;96050.03;;;1.60;100.00
42001;BME280;27689;48.390;10.856;2024-03-08T00:06:55;96058.53;;;1.62;100.00
42001;BME280;27689;48.390;10.856;2024-03-08T00:09:39;96052.16;;;1.54;100.00
42001;BME280;27689;48.390;10.856;2024-03-08T00:12:22;96058.53;;;1.62;100.00
42001;BME280;27689;48.390;10.856;2024-03-08T00:15:11;96053.63;;;1.58;100.00
42001;BME280;27689;48.390;10.856;2024-03-08T00:17:57;96054.56;;;1.57;100.00
42001;BME280;27689;48.390;10.856;2024-03-08T00:20:41;96053.06;;;1.53;100.00
42001;BME280;27689;48.390;10.856;2024-03-08T00:23:25;96048.56;;;1.56;100.00
42001;BME280;27689;48.390;10.856;2024-03-08T00:26:09;96049.28;;;1.58;100.00
42001;BME280;27689;48.390;10.856;2024-03-08T00:28:53;96034.91;;;1.54;100.00
42001;BME280;27689;48.390;10.856;2024-03-08T00:31:37;96040.63;;;1.59;100.00
42001;BME280;27689;48.390;10.856;2024-03-08T00:34:22;96033.06;;;1.56;100.00
42001;BME280;27689;48.390;10.856;2024-03-08T00:37:06;96027.06;;;1.56;100.00
42001;BME280;27689;48.390;10.856;2024-03-08T00:39:51;96025.69;;;1.50;100.00
42001;BME280;27689;48.390;10.856;2024-03-08T00:42:35;96023.94;;;1.51;100.00
42001;BME280;27689;48.390;10.856;2024-03-08T00:45:19;96021.00;;;1.42;100.00
42001;BME280;27689;48.390;10.856;2024-03-08T00:48:03;96016.78;;;1.41;100.00
42001;BME280;27689;48.390;10.856;2024-03-08T00:50:47;96022.94;;;1.39;100.00
42001;BME280;27689;48.390;10.856;2024-03-08T00:53:31;96018.53;;;1.41;100.00
42001;BME280;27689;48.390;10.856;2024-03-08T00:56:15;96005.53;;;1.42;100.00
42001;BME280;27689;48.390;10.856;2024-03-08T00:58:59;96014.94;;;1.44;100.00
42001;BME280;27689;48.390;10.856;2024-03-08T01:01:43;96010.88;;;1.39;100.00
42001;BME280;27689;48.390;10.856;2024-03-08T01:04:28;96023.22;;;1.34;100.00
42001;BME280;27689;48.390;10.856;2024-03-08T01:07:15;96017.34;;;1.32;100.00
42001;BME280;27689;48.390;10.856;2024-03-08T01:09:59;96011.16;;;1.21;100.00
42001;BME280;27689;48.390;10.856;2024-03-08T01:12:44;95998.16;;;1.22;100.00
42001;BME280;27689;48.390;10.856;2024-03-08T01:15:29;96002.13;;;1.28;100.00
42001;BME280;27689;48.390;10.856;2024-03-08T01:18:13;95998.63;;;1.29;100.00
42001;BME280;27689;48.390;10.856;2024-03-08T01:20:57;95992.53;;;1.30;100.00
42001;BME280;27689;48.390;10.856;2024-03-08T01:23:41;95979.91;;;1.25;100.00
42001;BME280;27689;48.390;10.856;2024-03-08T01:26:25;95979.34;;;1.20;100.00
42001;BME280;27689;48.390;10.856;2024-03-08T01:29:09;95983.50;;;1.23;100.00
42001;BME280;27689;48.390;10.856;2024-03-08T01:31:53;95981.22;;;1.18;100.00
42001;BME280;27689;48.390;10.856;2024-03-08T01:34:37;95986.09;;;1.23;100.00
42001;BME280;27689;48.390;10.856;2024-03-08T01:37:21;95967.59;;;1.16;100.00
42001;BME280;27689;48.390;10.856;2024-03-08T01:40:06;95971.53;;;1.22;100.00
42001;BME280;27689;48.390;10.856;2024-03-08T01:42:52;95969.34;;;1.16;100.00
42001;BME280;27689;48.390;10.856;2024-03-08T01:45:37;95958.09;;;1.17;100.00
42001;BME280;27689;48.390;10.856;2024-03-08T01:48:21;95952.38;;;1.12;100.00
42001;BME280;27689;48.390;10.856;2024-03-08T01:51:08;95947.78;;;1.17;100.00
42001;BME280;27689;48.390;10.856;2024-03-08T01:53:53;95949.44;;;1.18;100.00
42001;BME280;27689;48.390;10.856;2024-03-08T01:56:37;95946.22;;;1.14;100.00
42001;BME280;27689;48.390;10.856;2024-03-08T01:59:22;95942.16;;;1.10;100.00
42001;BME280;27689;48.390;10.856;2024-03-08T02:02:08;95939.47;;;1.12;100.00
42001;BME280;27689;48.390;10.856;2024-03-08T02:04:52;95941.31;;;1.10;100.00
42001;BME280;27689;48.390;10.856;2024-03-08T02:07:36;95937.81;;;1.11;100.00
42001;BME280;27689;48.390;10.856;2024-03-08T02:10:20;95935.97;;;1.13;100.00
42001;BME280;27689;48.390;10.856;2024-03-08T02:13:06;95932.00;;;1.07;100.00
42001;BME280;27689;48.390;10.856;2024-03-08T02:18:34;95924.19;;;1.09;100.00
42001;BME280;27689;48.390;10.856;2024-03-08T02:21:18;95917.56;;;1.04;100.00
42001;BME280;27689;48.390;10.856;2024-03-08T02:24:03;95918.59;;;1.02;100.00
42001;BME280;27689;48.390;10.856;2024-03-08T02:26:47;95916.72;;;1.04;100.00
42001;BME280;27689;48.390;10.856;2024-03-08T02:29:32;95910.28;;;0.97;100.00
42001;BME280;27689;48.390;10.856;2024-03-08T02:32:17;95909.66;;;0.93;100.00
42001;BME280;27689;48.390;10.856;2024-03-08T02:35:01;95907.81;;;0.95;100.00
42001;BME280;27689;48.390;10.856;2024-03-08T02:37:45;95912.22;;;0.93;100.00
42001;BME280;27689;48.390;10.856;2024-03-08T02:40:31;95914.44;;;0.99;100.00
42001;BME280;27689;48.390;10.856;2024-03-08T02:43:16;95905.97;;;0.97;100.00
42001;BME280;27689;48.390;10.856;2024-03-08T02:46:01;95905.50;;;0.91;100.00
42001;BME280;27689;48.390;10.856;2024-03-08T02:48:45;95909.94;;;0.89;100.00
42001;BME280;27689;48.390;10.856;2024-03-08T02:51:29;95899.72;;;0.87;100.00
42001;BME280;27689;48.390;10.856;2024-03-08T02:54:13;95915.91;;;0.89;100.00
42001;BME280;27689;48.390;10.856;2024-03-08T02:56:56;95906.63;;;0.87;100.00
42001;BME280;27689;48.390;10.856;2024-03-08T02:59:41;95899.72;;;0.87;100.00
42001;BME280;27689;48.390;10.856;2024-03-08T03:02:25;95900.72;;;0.85;100.00
42001;BME280;27689;48.390;10.856;2024-03-08T03:05:10;95896.41;;;0.85;100.00
42001;BME280;27689;48.390;10.856;2024-03-08T03:07:55;95886.91;;;0.86;100.00
42001;BME280;27689;48.390;10.856;2024-03-08T03:10:38;95897.84;;;0.89;100.00
42001;BME280;27689;48.390;10.856;2024-03-08T03:13:23;95888.75;;;0.84;100.00
42001;BME280;27689;48.390;10.856;2024-03-08T03:16:07;95886.28;;;0.82;100.00
42001;BME280;27689;48.390;10.856;2024-03-08T03:18:51;95886.53;;;0.78;100.00
42001;BME280;27689;48.390;10.856;2024-03-08T03:21:35;95881.38;;;0.78;100.00
42001;BME280;27689;48.390;10.856;2024-03-08T03:24:19;95884.97;;;0.75;100.00
42001;BME280;27689;48.390;10.856;2024-03-08T03:27:05;95875.78;;;0.71;100.00
42001;BME280;27689;48.390;10.856;2024-03-08T03:29:54;95886.94;;;0.72;100.00
42001;BME280;27689;48.390;10.856;2024-03-08T03:32:39;95882.03;;;0.67;100.00
42001;BME280;27689;48.390;10.856;2024-03-08T03:35:30;95881.69;;;0.73;100.00
42001;BME280;27689;48.390;10.856;2024-03-08T03:38:14;95885.91;;;0.74;100.00
42001;BME280;27689;48.390;10.856;2024-03-08T03:40:58;95881.69;;;0.73;100.00
42001;BME280;27689;48.390;10.856;2024-03-08T03:43:47;95874.03;;;0.72;100.00
42001;BME280;27689;48.390;10.856;2024-03-08T03:46:33;95877.63;;;0.69;100.00
42001;BME280;27689;48.390;10.856;2024-03-08T03:49:17;95876.72;;;0.70;100.00
42001;BME280;27689;48.390;10.856;2024-03-08T03:52:01;95872.28;;;0.72;100.00
42001;BME280;27689;48.390;10.856;2024-03-08T03:54:46;95871.47;;;0.72;100.00
42001;BME280;27689;48.390;10.856;2024-03-08T03:57:30;95873.56;;;0.65;100.00
42001;BME280;27689;48.390;10.856;2024-03-08T04:00:14;95874.13;;;0.70;100.00
42001;BME280;27689;48.390;10.856;2024-03-08T04:02:58;95876.06;;;0.66;100.00
42001;BME280;27689;48.390;10.856;2024-03-08T04:05:46;95866.41;;;0.70;100.00
42001;BME280;27689;48.390;10.856;2024-03-08T04:08:30;95862.53;;;0.63;100.00
42001;BME280;27689;48.390;10.856;2024-03-08T04:11:14;95871.56;;;0.70;100.00
42001;BME280;27689;48.390;10.856;2024-03-08T04:14:00;95882.78;;;0.69;100.00
42001;BME280;27689;48.390;10.856;2024-03-08T04:16:44;95876.53;;;0.73;100.00
42001;BME280;27689;48.390;10.856;2024-03-08T04:19:28;95873.84;;;0.75;100.00
42001;BME280;27689;48.390;10.856;2024-03-08T04:22:12;95869.50;;;0.75;100.00
42001;BME280;27689;48.390;10.856;2024-03-08T04:24:57;95869.72;;;0.72;100.00
42001;BME280;27689;48.390;10.856;2024-03-08T04:27:41;95867.75;;;0.76;100.00
42001;BME280;27689;48.390;10.856;2024-03-08T04:30:24;95870.81;;;0.82;100.00
42001;BME280;27689;48.390;10.856;2024-03-08T04:33:09;95853.69;;;0.81;100.00
42001;BME280;27689;48.390;10.856;2024-03-08T04:35:53;95848.84;;;0.89;100.00
42001;BME280;27689;48.390;10.856;2024-03-08T04:38:37;95852.19;;;0.91;100.00
42001;BME280;27689;48.390;10.856;2024-03-08T04:41:24;95852.09;;;0.93;100.00
42001;BME280;27689;48.390;10.856;2024-03-08T04:44:09;95852.75;;;0.82;100.00
42001;BME280;27689;48.390;10.856;2024-03-08T04:46:53;95851.91;;;0.96;100.00
42001;BME280;27689;48.390;10.856;2024-03-08T04:49:37;95852.53;;;0.99;100.00
42001;BME280;27689;48.390;10.856;2024-03-08T04:52:21;95843.53;;;0.92;100.00
42001;BME280;27689;48.390;10.856;2024-03-08T04:55:06;95847.75;;;0.93;100.00
42001;BME280;27689;48.390;10.856;2024-03-08T04:57:50;95846.19;;;0.91;100.00
42001;BME280;27689;48.390;10.856;2024-03-08T05:00:34;95851.72;;;0.99;100.00
42001;BME280;27689;48.390;10.856;2024-03-08T05:03:19;95842.59;;;0.93;100.00
42001;BME280;27689;48.390;10.856;2024-03-08T05:06:03;95840.75;;;0.95;100.00
42001;BME280;27689;48.390;10.856;2024-03-08T05:08:47;95839.09;;;0.94;100.00
42001;BME280;27689;48.390;10.856;2024-03-08T05:11:30;95837.06;;;0.99;100.00
42001;BME280;27689;48.390;10.856;2024-03-08T05:14:15;95843.69;;;0.89;100.00
42001;BME280;27689;48.390;10.856;2024-03-08T05:17:06;95834.44;;;0.87;100.00
42001;BME280;27689;48.390;10.856;2024-03-08T05:19:50;95831.84;;;0.87;100.00
42001;BME280;27689;48.390;10.856;2024-03-08T05:22:35;95841.94;;;0.90;100.00
42001;BME280;27689;48.390;10.856;2024-03-08T05:25:19;95838.38;;;0.92;100.00
42001;BME280;27689;48.390;10.856;2024-03-08T05:28:03;95840.56;;;0.98;100.00
42001;BME280;27689;48.390;10.856;2024-03-08T05:30:48;95840.66;;;0.97;100.00
42001;BME280;27689;48.390;10.856;2024-03-08T05:33:31;95831.09;;;0.99;100.00
42001;BME280;27689;48.390;10.856;2024-03-08T05:36:16;95831.53;;;0.91;100.00
42001;BME280;27689;48.390;10.856;2024-03-08T05:39:03;95841.94;;;0.90;100.00
42001;BME280;27689;48.390;10.856;2024-03-08T05:41:50;95838.38;;;0.92;100.00
42001;BME280;27689;48.390;10.856;2024-03-08T05:44:34;95843.06;;;1.00;100.00
42001;BME280;27689;48.390;10.856;2024-03-08T05:47:18;95830.16;;;1.00;100.00
42001;BME280;27689;48.390;10.856;2024-03-08T05:50:02;95833.38;;;0.89;100.00
42001;BME280;27689;48.390;10.856;2024-03-08T05:52:47;95823.06;;;0.89;100.00
42001;BME280;27689;48.390;10.856;2024-03-08T05:55:32;95840.56;;;0.98;100.00
42001;BME280;27689;48.390;10.856;2024-03-08T05:58:18;95831.09;;;0.99;100.00
42001;BME280;27689;48.390;10.856;2024-03-08T06:01:02;95830.16;;;1.00;100.00
42001;BME280;27689;48.390;10.856;2024-03-08T06:03:55;95827.41;;;1.03;100.00
42001;BME280;27689;48.390;10.856;2024-03-08T06:06:40;95821.84;;;1.09;100.00
42001;BME280;27689;48.390;10.856;2024-03-08T06:09:25;95819.16;;;1.11;100.00
42001;BME280;27689;48.390;10.856;2024-03-08T06:12:09;95818.25;;;1.12;100.00
42001;BME280;27689;48.390;10.856;2024-03-08T06:14:54;95815.91;;;1.21;100.00
42001;BME280;27689;48.390;10.856;2024-03-08T06:17:38;95821.50;;;1.28;100.00
42001;BME280;27689;48.390;10.856;2024-03-08T06:20:22;95822.34;;;1.28;100.00
42001;BME280;27689;48.390;10.856;2024-03-08T06:23:10;95819.22;;;1.23;100.00
42001;BME280;27689;48.390;10.856;2024-03-08T06:25:53;95823.34;;;1.26;100.00
42001;BME280;27689;48.390;10.856;2024-03-08T06:28:38;95834.31;;;1.29;100.00
42001;BME280;27689;48.390;10.856;2024-03-08T06:31:22;95823.53;;;1.23;100.00
42001;BME280;27689;48.390;10.856;2024-03-08T06:34:06;95829.78;;;1.33;100.00
42001;BME280;27689;48.390;10.856;2024-03-08T06:36:53;95823.50;;;1.37;100.00
42001;BME280;27689;48.390;10.856;2024-03-08T06:39:44;95824.81;;;1.30;100.00
42001;BME280;27689;48.390;10.856;2024-03-08T06:42:28;95825.34;;;1.35;100.00
42001;BME280;27689;48.390;10.856;2024-03-08T06:45:13;95820.72;;;1.40;100.00
42001;BME280;27689;48.390;10.856;2024-03-08T06:47:59;95823.84;;;1.45;100.00
42001;BME280;27689;48.390;10.856;2024-03-08T06:50:44;95826.91;;;1.37;100.00
42001;BME280;27689;48.390;10.856;2024-03-08T06:53:29;95831.03;;;1.40;100.00
42001;BME280;27689;48.390;10.856;2024-03-08T06:56:12;95829.19;;;1.42;100.00
42001;BME280;27689;48.390;10.856;2024-03-08T06:58:57;95821.94;;;1.34;100.00
42001;BME280;27689;48.390;10.856;2024-03-08T07:01:40;95820.63;;;1.41;100.00
42001;BME280;27689;48.390;10.856;2024-03-08T07:04:25;95815.78;;;1.50;100.00
42001;BME280;27689;48.390;10.856;2024-03-08T07:07:13;95822.50;;;1.52;100.00
42001;BME280;27689;48.390;10.856;2024-03-08T07:09:57;95815.19;;;1.46;100.00
42001;BME280;27689;48.390;10.856;2024-03-08T07:12:41;95817.34;;;1.52;100.00
42001;BME280;27689;48.390;10.856;2024-03-08T07:15:26;95813.56;;;1.58;100.00
42001;BME280;27689;48.390;10.856;2024-03-08T07:18:09;95806.63;;;1.58;100.00
42001;BME280;27689;48.390;10.856;2024-03-08T07:20:57;95801.66;;;1.55;100.00
42001;BME280;27689;48.390;10.856;2024-03-08T07:23:42;95812.31;;;1.63;100.00
42001;BME280;27689;48.390;10.856;2024-03-08T07:26:53;95815.63;;;1.65;100.00
42001;BME280;27689;48.390;10.856;2024-03-08T07:29:39;95810.91;;;1.72;100.00
42001;BME280;27689;48.390;10.856;2024-03-08T07:32:23;95803.78;;;1.75;100.00
42001;BME280;27689;48.390;10.856;2024-03-08T07:35:09;95801.78;;;1.66;100.00
42001;BME280;27689;48.390;10.856;2024-03-08T07:37:53;95801.59;;;1.69;100.00
42001;BME280;27689;48.390;10.856;2024-03-08T07:40:39;95806.72;;;1.57;100.00
42001;BME280;27689;48.390;10.856;2024-03-08T07:43:24;95806.53;;;1.60;100.00
42001;BME280;27689;48.390;10.856;2024-03-08T07:46:09;95803.75;;;1.63;100.00
42001;BME280;27689;48.390;10.856;2024-03-08T07:48:54;95807.28;;;1.62;100.00
42001;BME280;27689;48.390;10.856;2024-03-08T07:51:38;95799.72;;;1.71;100.00
42001;BME280;27689;48.390;10.856;2024-03-08T07:54:22;95799.75;;;1.84;100.00
42001;BME280;27689;48.390;10.856;2024-03-08T07:57:06;95793.16;;;1.93;100.00
42001;BME280;27689;48.390;10.856;2024-03-08T07:59:50;95793.16;;;1.93;100.00
42001;BME280;27689;48.390;10.856;2024-03-08T08:02:35;95795.31;;;1.99;100.00
42001;BME280;27689;48.390;10.856;2024-03-08T08:05:19;95779.72;;;2.00;100.00
42001;BME280;27689;48.390;10.856;2024-03-08T08:08:07;95783.56;;;2.07;100.00
42001;BME280;27689;48.390;10.856;2024-03-08T08:10:51;95786.44;;;2.16;100.00
42001;BME280;27689;48.390;10.856;2024-03-08T08:13:35;95785.81;;;2.12;100.00
42001;BME280;27689;48.390;10.856;2024-03-08T08:16:22;95780.34;;;2.04;100.00
42001;BME280;27689;48.390;10.856;2024-03-08T08:19:06;95789.31;;;2.11;100.00
42001;BME280;27689;48.390;10.856;2024-03-08T08:21:51;95787.28;;;2.16;100.00
42001;BME280;27689;48.390;10.856;2024-03-08T08:24:35;95785.91;;;2.23;100.00
42001;BME280;27689;48.390;10.856;2024-03-08T08:27:20;95776.28;;;2.25;100.00
42001;BME280;27689;48.390;10.856;2024-03-08T08:30:04;95779.91;;;2.23;100.00
42001;BME280;27689;48.390;10.856;2024-03-08T08:32:51;95774.16;;;2.19;100.00
42001;BME280;27689;48.390;10.856;2024-03-08T08:35:38;95774.16;;;2.06;100.00
42001;BME280;27689;48.390;10.856;2024-03-08T08:38:22;95758.84;;;2.16;100.00
42001;BME280;27689;48.390;10.856;2024-03-08T08:41:07;95769.28;;;2.27;100.00
42001;BME280;27689;48.390;10.856;2024-03-08T08:43:51;95760.78;;;2.38;100.00
42001;BME280;27689;48.390;10.856;2024-03-08T08:46:36;95749.19;;;2.43;100.00
42001;BME280;27689;48.390;10.856;2024-03-08T08:49:21;95756.31;;;2.40;100.00
42001;BME280;27689;48.390;10.856;2024-03-08T08:52:05;95751.97;;;2.40;100.00
42001;BME280;27689;48.390;10.856;2024-03-08T08:54:49;95752.28;;;2.48;100.00
42001;BME280;27689;48.390;10.856;2024-03-08T08:57:34;95746.91;;;2.52;100.00
42001;BME280;27689;48.390;10.856;2024-03-08T09:00:19;95750.78;;;2.70;100.00
42001;BME280;27689;48.390;10.856;2024-03-08T09:03:04;95742.91;;;2.71;100.00
42001;BME280;27689;48.390;10.856;2024-03-08T09:05:50;95738.97;;;2.78;100.00
42001;BME280;27689;48.390;10.856;2024-03-08T09:08:34;95732.31;;;2.87;100.00
42001;BME280;27689;48.390;10.856;2024-03-08T09:11:18;95733.28;;;2.97;100.00
42001;BME280;27689;48.390;10.856;2024-03-08T09:14:02;95732.34;;;2.98;100.00
42001;BME280;27689;48.390;10.856;2024-03-08T09:16:46;95726.06;;;3.13;100.00
42001;BME280;27689;48.390;10.856;2024-03-08T09:19:30;95721.56;;;3.04;100.00
42001;BME280;27689;48.390;10.856;2024-03-08T09:22:16;95727.97;;;3.11;100.00
42001;BME280;27689;48.390;10.856;2024-03-08T09:25:00;95723.09;;;3.31;100.00
42001;BME280;27689;48.390;10.856;2024-03-08T09:27:44;95723.09;;;3.31;100.00
42001;BME280;27689;48.390;10.856;2024-03-08T09:30:30;95718.09;;;3.40;100.00
42001;BME280;27689;48.390;10.856;2024-03-08T09:33:13;95723.28;;;3.51;100.00
42001;BME280;27689;48.390;10.856;2024-03-08T09:36:03;95729.78;;;3.22;100.00
42001;BME280;27689;48.390;10.856;2024-03-08T09:38:47;95727.47;;;3.41;100.00
42001;BME280;27689;48.390;10.856;2024-03-08T09:41:33;95718.81;;;3.53;100.00
42001;BME280;27689;48.390;10.856;2024-03-08T09:44:17;95714.94;;;3.59;100.00
42001;BME280;27689;48.390;10.856;2024-03-08T09:47:04;95712.63;;;3.67;100.00
42001;BME280;27689;48.390;10.856;2024-03-08T09:49:48;95712.03;;;3.75;100.00
42001;BME280;27689;48.390;10.856;2024-03-08T09:52:32;95716.16;;;3.77;100.00
42001;BME280;27689;48.390;10.856;2024-03-08T09:55:17;95717.47;;;3.83;100.00
42001;BME280;27689;48.390;10.856;2024-03-08T09:58:06;95707.69;;;3.75;100.00
42001;BME280;27689;48.390;10.856;2024-03-08T10:01:16;95710.88;;;3.90;100.00
42001;BME280;27689;48.390;10.856;2024-03-08T10:04:02;95703.81;;;4.03;100.00
42001;BME280;27689;48.390;10.856;2024-03-08T10:06:46;95700.16;;;4.06;100.00
42001;BME280;27689;48.390;10.856;2024-03-08T10:09:33;95697.56;;;4.17;100.00
42001;BME280;27689;48.390;10.856;2024-03-08T10:12:17;95703.94;;;4.24;100.00
42001;BME280;27689;48.390;10.856;2024-03-08T10:15:05;95690.06;;;4.14;100.00
42001;BME280;27689;48.390;10.856;2024-03-08T10:17:49;95689.94;;;4.27;100.00
42001;BME280;27689;48.390;10.856;2024-03-08T10:20:33;95685.75;;;4.69;100.00
42001;BME280;27689;48.390;10.856;2024-03-08T10:23:17;95677.41;;;4.97;100.00
42001;BME280;27689;48.390;10.856;2024-03-08T10:26:17;95674.53;;;5.74;100.00
42001;BME280;27689;48.390;10.856;2024-03-08T10:29:03;95667.31;;;5.77;99.82
42001;BME280;27689;48.390;10.856;2024-03-08T10:31:47;95674.47;;;6.36;100.00
42001;BME280;27689;48.390;10.856;2024-03-08T10:34:32;95668.00;;;6.80;99.72
42001;BME280;27689;48.390;10.856;2024-03-08T10:37:16;95656.63;;;7.00;94.06
42001;BME280;27689;48.390;10.856;2024-03-08T10:40:08;95668.56;;;7.03;93.14
42001;BME280;27689;48.390;10.856;2024-03-08T10:42:59;95668.84;;;7.10;94.82
42001;BME280;27689;48.390;10.856;2024-03-08T10:45:44;95664.88;;;6.96;95.00
42001;BME280;27689;48.390;10.856;2024-03-08T10:48:31;95660.34;;;7.27;93.65
42001;BME280;27689;48.390;10.856;2024-03-08T10:51:16;95658.97;;;7.23;88.13
42001;BME280;27689;48.390;10.856;2024-03-08T10:54:01;95653.19;;;7.29;90.51
42001;BME280;27689;48.390;10.856;2024-03-08T10:56:48;95647.97;;;7.67;91.77
42001;BME280;27689;48.390;10.856;2024-03-08T10:59:33;95646.78;;;7.89;87.88
42001;BME280;27689;48.390;10.856;2024-03-08T11:02:19;95648.78;;;8.14;85.84
42001;BME280;27689;48.390;10.856;2024-03-08T11:05:03;95644.22;;;8.17;86.61
42001;BME280;27689;48.390;10.856;2024-03-08T11:07:49;95643.16;;;8.09;80.56
42001;BME280;27689;48.390;10.856;2024-03-08T11:10:33;95632.03;;;8.07;85.96
42001;BME280;27689;48.390;10.856;2024-03-08T11:13:40;95630.09;;;7.82;82.70
42001;BME280;27689;48.390;10.856;2024-03-08T11:21:58;95618.00;;;8.91;82.60
42001;BME280;27689;48.390;10.856;2024-03-08T11:24:42;95609.03;;;8.58;76.08
42001;BME280;27689;48.390;10.856;2024-03-08T11:27:32;95600.53;;;8.91;80.96
42001;BME280;27689;48.390;10.856;2024-03-08T11:30:21;95601.75;;;9.14;78.25
42001;BME280;27689;48.390;10.856;2024-03-08T11:33:11;95606.34;;;9.20;78.68
42001;BME280;27689;48.390;10.856;2024-03-08T11:36:12;95599.81;;;9.60;79.46
42001;BME280;27689;48.390;10.856;2024-03-08T11:38:59;95593.06;;;9.83;78.58
42001;BME280;27689;48.390;10.856;2024-03-08T11:41:51;95584.56;;;9.81;76.63
42001;BME280;27689;48.390;10.856;2024-03-08T11:44:35;95582.63;;;9.32;75.76
42001;BME280;27689;48.390;10.856;2024-03-08T11:47:20;95580.28;;;9.29;78.05
42001;BME280;27689;48.390;10.856;2024-03-08T11:50:06;95566.44;;;9.10;74.11
42001;BME280;27689;48.390;10.856;2024-03-08T11:53:03;95575.84;;;8.86;73.47
42001;BME280;27689;48.390;10.856;2024-03-08T11:55:48;95568.72;;;9.31;76.64
42001;BME280;27689;48.390;10.856;2024-03-08T11:58:32;95565.13;;;9.84;77.57
42001;BME280;27689;48.390;10.856;2024-03-08T12:01:16;95565.56;;;10.13;76.37
42001;BME280;27689;48.390;10.856;2024-03-08T12:04:00;95559.16;;;10.34;74.20
42001;BME280;27689;48.390;10.856;2024-03-08T12:06:45;95555.41;;;10.44;71.97
42001;BME280;27689;48.390;10.856;2024-03-08T12:09:31;95553.75;;;9.41;70.13
42001;BME280;27689;48.390;10.856;2024-03-08T12:12:15;95550.16;;;10.02;73.75
42001;BME280;27689;48.390;10.856;2024-03-08T12:14:59;95550.38;;;9.75;67.78
42001;BME280;27689;48.390;10.856;2024-03-08T12:17:44;95544.47;;;10.07;71.54
42001;BME280;27689;48.390;10.856;2024-03-08T12:20:32;95522.09;;;9.78;68.02
42001;BME280;27689;48.390;10.856;2024-03-08T12:23:16;95534.72;;;10.25;71.40
42001;BME280;27689;48.390;10.856;2024-03-08T12:26:17;95534.81;;;10.07;66.03
42001;BME280;27689;48.390;10.856;2024-03-08T12:32:03;95527.13;;;10.56;67.81
42001;BME280;27689;48.390;10.856;2024-03-08T12:34:52;95520.78;;;10.83;70.43
42001;BME280;27689;48.390;10.856;2024-03-08T12:37:37;95524.66;;;10.54;67.17
42001;BME280;27689;48.390;10.856;2024-03-08T12:40:29;95519.13;;;10.90;66.66
42001;BME280;27689;48.390;10.856;2024-03-08T12:43:13;95517.31;;;11.31;68.68
42001;BME280;27689;48.390;10.856;2024-03-08T12:45:59;95506.81;;;11.47;66.47
42001;BME280;27689;48.390;10.856;2024-03-08T12:48:43;95508.88;;;11.76;64.81
42001;BME280;27689;48.390;10.856;2024-03-08T12:51:30;95501.34;;;11.81;65.81
42001;BME280;27689;48.390;10.856;2024-03-08T12:54:14;95500.03;;;11.77;62.20
42001;BME280;27689;48.390;10.856;2024-03-08T12:56:58;95489.69;;;11.84;63.12
42001;BME280;27689;48.390;10.856;2024-03-08T12:59:42;95487.94;;;12.07;64.11
42001;BME280;27689;48.390;10.856;2024-03-08T13:02:26;95488.78;;;11.52;62.71
42001;BME280;27689;48.390;10.856;2024-03-08T13:05:10;95478.06;;;11.62;63.25
42001;BME280;27689;48.390;10.856;2024-03-08T13:07:54;95475.13;;;11.65;62.83
42001;BME280;27689;48.390;10.856;2024-03-08T13:10:42;95469.63;;;11.99;62.39
42001;BME280;27689;48.390;10.856;2024-03-08T13:13:29;95465.78;;;11.62;61.13
42001;BME280;27689;48.390;10.856;2024-03-08T13:16:13;95457.16;;;11.93;63.83
42001;BME280;27689;48.390;10.856;2024-03-08T13:19:01;95455.66;;;12.29;62.28
42001;BME280;27689;48.390;10.856;2024-03-08T13:21:45;95460.38;;;12.34;62.43
42001;BME280;27689;48.390;10.856;2024-03-08T13:24:33;95447.63;;;12.31;61.20
42001;BME280;27689;48.390;10.856;2024-03-08T13:27:17;95449.16;;;12.17;58.63
42001;BME280;27689;48.390;10.856;2024-03-08T13:30:06;95442.38;;;12.00;60.03
42001;BME280;27689;48.390;10.856;2024-03-08T13:32:51;95440.75;;;11.91;59.35
42001;BME280;27689;48.390;10.856;2024-03-08T13:35:36;95431.25;;;11.90;61.40
42001;BME280;27689;48.390;10.856;2024-03-08T13:38:21;95437.72;;;11.63;60.00
42001;BME280;27689;48.390;10.856;2024-03-08T13:41:06;95427.78;;;11.50;58.87
42001;BME280;27689;48.390;10.856;2024-03-08T13:43:50;95422.22;;;11.45;62.75
42001;BME280;27689;48.390;10.856;2024-03-08T13:46:34;95429.09;;;11.46;60.45
42001;BME280;27689;48.390;10.856;2024-03-08T13:49:21;95427.22;;;11.16;58.47
42001;BME280;27689;48.390;10.856;2024-03-08T13:52:05;95428.00;;;11.32;60.55
42001;BME280;27689;48.390;10.856;2024-03-08T13:54:49;95408.66;;;11.34;58.73
42001;BME280;27689;48.390;10.856;2024-03-08T13:57:35;95413.16;;;11.01;61.01
42001;BME280;27689;48.390;10.856;2024-03-08T14:00:19;95408.41;;;11.04;59.55
42001;BME280;27689;48.390;10.856;2024-03-08T14:03:07;95407.44;;;10.89;60.56
42001;BME280;27689;48.390;10.856;2024-03-08T14:05:51;95411.06;;;10.47;60.94
42001;BME280;27689;48.390;10.856;2024-03-08T14:08:35;95404.84;;;10.40;62.64
42001;BME280;27689;48.390;10.856;2024-03-08T14:11:21;95392.91;;;10.46;61.93
42001;BME280;27689;48.390;10.856;2024-03-08T14:14:07;95392.25;;;10.60;62.11
42001;BME280;27689;48.390;10.856;2024-03-08T14:16:52;95401.72;;;10.69;62.56
42001;BME280;27689;48.390;10.856;2024-03-08T14:19:38;95391.09;;;10.54;62.75
42001;BME280;27689;48.390;10.856;2024-03-08T14:22:23;95387.16;;;10.42;60.89
42001;BME280;27689;48.390;10.856;2024-03-08T14:25:07;95384.56;;;10.50;61.18
42001;BME280;27689;48.390;10.856;2024-03-08T14:28:00;95375.06;;;10.41;62.11
42001;BME280;27689;48.390;10.856;2024-03-08T14:30:47;95370.63;;;10.25;61.25
42001;BME280;27689;48.390;10.856;2024-03-08T14:33:31;95368.34;;;10.31;61.32
42001;BME280;27689;48.390;10.856;2024-03-08T14:36:15;95362.47;;;10.29;60.59